Time;durP1;ratioP1;P1;durP2;ratioP2;P2;SDS_P1;SDS_P2;PMS_P1;PMS_P2;Temp;Humidity;BMP_temperature;BMP_pressure;BME280_temperature;BME280_humidity;BME280_pressure;Samples;Min_cycle;Max_cycle;Signal;HPM_P1;HPM_P2
2023/06/15 00:00:33;;;;;;;6.60;2.15;;;18.00;99.50;;;;;;7405285;19;19986;-78
2023/06/15 00:03:03;;;;;;;3.10;1.85;;;17.70;99.50;;;;;;7406456;19;19923;-78
2023/06/15 00:05:34;;;;;;;4.90;1.85;;;17.60;99.50;;;;;;7406692;19;19931;-78
2023/06/15 00:08:03;;;;;;;5.28;2.10;;;17.70;99.70;;;;;;7405319;19;19993;-78
2023/06/15 00:10:33;;;;;;;3.67;1.70;;;17.60;99.90;;;;;;7405106;19;19984;-78
2023/06/15 00:13:03;;;;;;;4.93;1.80;;;17.50;99.90;;;;;;7402478;19;20346;-77
2023/06/15 00:15:36;;;;;;;2.88;1.92;;;17.50;99.90;;;;;;7401115;19;19914;-77
2023/06/15 00:18:06;;;;;;;5.40;1.95;;;17.30;99.90;;;;;;7409693;19;19970;-77
2023/06/15 00:20:37;;;;;;;3.58;1.80;;;17.30;99.90;;;;;;7404534;19;19918;-77
2023/06/15 00:23:09;;;;;;;6.30;2.33;;;17.30;99.90;;;;;;7405746;19;19959;-78
2023/06/15 00:25:39;;;;;;;5.40;1.98;;;17.10;99.90;;;;;;7406346;19;19940;-78
2023/06/15 00:28:09;;;;;;;4.53;1.75;;;17.20;99.90;;;;;;7405578;19;19926;-77
2023/06/15 00:30:42;;;;;;;3.75;1.90;;;17.10;99.90;;;;;;7406012;19;19923;-78
2023/06/15 00:33:11;;;;;;;3.55;2.13;;;17.00;99.90;;;;;;7404645;19;19918;-78
2023/06/15 00:35:41;;;;;;;2.28;1.83;;;17.00;99.90;;;;;;7405920;19;19929;-77
2023/06/15 00:38:11;;;;;;;3.28;1.80;;;17.10;99.90;;;;;;7403797;19;19954;-78
2023/06/15 00:40:42;;;;;;;3.95;2.17;;;16.90;99.90;;;;;;7407798;19;19947;-78
2023/06/15 00:43:12;;;;;;;6.07;2.22;;;17.90;99.90;;;;;;7402622;19;19918;-78
2023/06/15 00:45:44;;;;;;;4.60;2.20;;;16.90;99.90;;;;;;7403938;19;20397;-78
2023/06/15 00:48:14;;;;;;;5.97;2.05;;;16.70;99.90;;;;;;7405613;19;19922;-78
2023/06/15 00:50:45;;;;;;;3.10;1.83;;;16.80;99.90;;;;;;7405948;19;19918;-78
2023/06/15 00:53:14;;;;;;;4.32;2.10;;;16.90;99.90;;;;;;7403319;19;19918;-78
2023/06/15 00:55:46;;;;;;;6.03;2.42;;;16.70;99.90;;;;;;7401439;19;19923;-77
2023/06/15 00:58:15;;;;;;;4.43;2.40;;;16.90;99.90;;;;;;7401041;19;19982;-78
2023/06/15 01:00:50;;;;;;;3.10;2.38;;;16.80;99.90;;;;;;7404147;19;19914;-78
2023/06/15 01:03:21;;;;;;;6.72;2.28;;;16.70;99.90;;;;;;7398917;19;19935;-77
2023/06/15 01:05:57;;;;;;;5.80;2.10;;;16.60;99.90;;;;;;7403107;19;19919;-77
2023/06/15 01:08:29;;;;;;;4.03;2.40;;;16.50;99.90;;;;;;7403172;19;20346;-78
2023/06/15 01:10:59;;;;;;;2.63;1.90;;;16.50;99.90;;;;;;7405261;19;20566;-78
2023/06/15 01:13:30;;;;;;;5.15;2.15;;;16.40;99.90;;;;;;7402145;19;20474;-78
2023/06/15 01:16:09;;;;;;;4.10;2.22;;;16.50;99.90;;;;;;7404465;19;19919;-78
2023/06/15 01:18:46;;;;;;;5.07;2.72;;;16.40;99.90;;;;;;7404741;19;20549;-78
2023/06/15 01:21:16;;;;;;;3.42;2.25;;;16.30;99.90;;;;;;7407107;19;19918;-78
2023/06/15 01:23:52;;;;;;;5.80;2.72;;;16.40;99.90;;;;;;7403004;19;19994;-80
2023/06/15 01:26:28;;;;;;;5.47;2.13;;;16.50;99.90;;;;;;7403317;19;19918;-79
2023/06/15 01:28:59;;;;;;;5.10;2.30;;;16.60;99.90;;;;;;7401918;19;19932;-77
2023/06/15 01:31:33;;;;;;;4.97;2.47;;;16.40;99.90;;;;;;7403643;19;19936;-77
2023/06/15 01:34:03;;;;;;;4.50;2.47;;;16.20;99.90;;;;;;7406390;19;19919;-77
2023/06/15 01:36:33;;;;;;;5.68;2.67;;;16.20;99.90;;;;;;7405730;19;19926;-77
2023/06/15 01:39:03;;;;;;;3.35;2.40;;;16.00;99.90;;;;;;7402362;19;19922;-77
2023/06/15 01:41:37;;;;;;;4.88;2.67;;;16.20;99.90;;;;;;7404301;19;19922;-77
2023/06/15 01:44:08;;;;;;;5.57;3.20;;;16.10;99.90;;;;;;7404289;19;19919;-77
2023/06/15 01:46:39;;;;;;;5.05;2.50;;;16.20;99.90;;;;;;7404079;19;19918;-77
2023/06/15 01:49:08;;;;;;;5.28;2.50;;;16.10;99.90;;;;;;7402989;19;20352;-77
2023/06/15 01:51:39;;;;;;;6.28;2.50;;;16.10;99.90;;;;;;7403535;19;19947;-77
2023/06/15 01:54:09;;;;;;;4.03;2.38;;;16.00;99.90;;;;;;7404734;19;19935;-77
2023/06/15 01:56:42;;;;;;;4.93;2.40;;;16.00;99.90;;;;;;7403906;19;19933;-77
2023/06/15 01:59:12;;;;;;;6.90;2.50;;;15.80;99.90;;;;;;7403773;19;19922;-77
2023/06/15 02:01:42;;;;;;;8.50;2.70;;;16.00;99.90;;;;;;7403605;19;19956;-77
2023/06/15 02:04:12;;;;;;;4.03;2.40;;;15.80;99.90;;;;;;7404359;19;19945;-77
2023/06/15 02:06:42;;;;;;;5.25;3.00;;;16.00;99.90;;;;;;7401103;19;19926;-77
2023/06/15 02:09:13;;;;;;;6.10;2.50;;;15.90;99.90;;;;;;7401215;19;19933;-77
2023/06/15 02:11:47;;;;;;;6.57;2.92;;;15.90;99.90;;;;;;7402569;19;19927;-77
2023/06/15 02:14:17;;;;;;;6.05;2.75;;;15.80;99.90;;;;;;7396469;19;19915;-76
2023/06/15 02:16:49;;;;;;;7.13;2.55;;;15.80;99.90;;;;;;7398013;19;19915;-77
2023/06/15 02:19:21;;;;;;;5.25;2.63;;;15.90;99.90;;;;;;7401672;19;19946;-76
2023/06/15 02:21:51;;;;;;;;;;;15.70;99.90;;;;;;7405508;19;19929;-77
2023/06/15 02:24:21;;;;;;;4.50;2.50;;;15.80;99.90;;;;;;7400620;19;19914;-76
2023/06/15 02:26:53;;;;;;;3.72;2.33;;;15.80;99.90;;;;;;7400520;19;19922;-76
2023/06/15 02:29:23;;;;;;;5.22;2.88;;;15.70;99.90;;;;;;7399362;19;20295;-77
2023/06/15 02:31:53;;;;;;;4.00;2.40;;;15.50;99.90;;;;;;7400756;19;19953;-77
2023/06/15 02:34:24;;;;;;;6.15;2.58;;;15.50;99.90;;;;;;7401033;19;19922;-77
2023/06/15 02:36:54;;;;;;;;;;;15.40;99.90;;;;;;7402023;19;19933;-77
2023/06/15 02:39:24;;;;;;;4.22;2.50;;;15.40;99.90;;;;;;7400698;19;19926;-77
2023/06/15 02:41:56;;;;;;;5.55;2.55;;;15.40;99.90;;;;;;7399223;19;19946;-77
2023/06/15 02:44:26;;;;;;;5.78;2.42;;;15.50;99.90;;;;;;7400141;19;19918;-77
2023/06/15 02:46:55;;;;;;;6.28;2.40;;;15.50;99.90;;;;;;7399213;19;19918;-77
2023/06/15 02:49:26;;;;;;;5.15;2.85;;;15.50;99.90;;;;;;7399066;19;19974;-77
2023/06/15 02:51:56;;;;;;;4.97;2.55;;;15.50;99.90;;;;;;7397158;19;19926;-77
2023/06/15 02:54:26;;;;;;;5.75;2.75;;;15.30;99.90;;;;;;7401465;19;19918;-77
2023/06/15 02:56:58;;;;;;;6.50;2.80;;;15.50;99.90;;;;;;7401453;19;19922;-77
2023/06/15 02:59:28;;;;;;;7.22;2.97;;;15.40;99.90;;;;;;7398794;19;19914;-77
2023/06/15 03:01:58;;;;;;;4.22;2.53;;;15.50;99.90;;;;;;7400297;19;20333;-77
2023/06/15 03:04:28;;;;;;;4.60;2.72;;;15.30;99.90;;;;;;7397935;19;19914;-77
2023/06/15 03:06:59;;;;;;;5.82;2.25;;;15.30;99.90;;;;;;7398136;19;19918;-77
2023/06/15 03:09:29;;;;;;;5.32;2.53;;;14.30;99.90;;;;;;7399062;19;19926;-77
2023/06/15 03:12:07;;;;;;;4.97;2.50;;;15.30;99.90;;;;;;7398919;19;19926;-77
2023/06/15 03:14:37;;;;;;;4.47;2.58;;;15.10;99.90;;;;;;7396830;19;20338;-77
2023/06/15 03:17:09;;;;;;;4.68;2.60;;;15.30;99.90;;;;;;7400625;19;19926;-77
2023/06/15 03:19:39;;;;;;;4.70;2.65;;;15.40;99.90;;;;;;7400854;19;19929;-77
2023/06/15 03:22:10;;;;;;;5.30;2.58;;;15.20;99.90;;;;;;7403217;19;19918;-77
2023/06/15 03:24:41;;;;;;;4.45;2.60;;;15.10;99.90;;;;;;7399480;19;19922;-77
2023/06/15 03:27:14;;;;;;;3.90;2.50;;;15.30;99.90;;;;;;7404621;19;19978;-77
2023/06/15 03:29:49;;;;;;;4.82;2.67;;;15.10;99.90;;;;;;7406474;19;19927;-78
2023/06/15 03:32:18;;;;;;;5.13;2.70;;;15.20;99.90;;;;;;7406157;19;19918;-77
2023/06/15 03:34:49;;;;;;;5.35;2.92;;;15.10;99.90;;;;;;7408687;19;19939;-77
2023/06/15 03:37:19;;;;;;;5.60;2.65;;;15.10;99.90;;;;;;7406879;19;20343;-76
2023/06/15 03:39:49;;;;;;;5.53;3.50;;;15.20;99.90;;;;;;7406117;19;20226;-76
2023/06/15 03:42:21;;;;;;;6.05;2.90;;;15.30;99.90;;;;;;7405977;19;19925;-77
2023/06/15 03:44:51;;;;;;;7.50;3.10;;;15.20;99.90;;;;;;7406052;19;20328;-77
2023/06/15 03:47:21;;;;;;;5.32;2.90;;;15.10;99.90;;;;;;7404616;19;19926;-77
2023/06/15 03:49:51;;;;;;;6.40;2.83;;;15.40;99.90;;;;;;7404784;19;19978;-77
2023/06/15 03:52:20;;;;;;;8.77;2.90;;;15.30;99.90;;;;;;7409795;19;20341;-77
2023/06/15 03:54:50;;;;;;;4.05;2.80;;;15.40;99.90;;;;;;7406949;19;20341;-77
2023/06/15 03:57:22;;;;;;;4.80;2.63;;;15.40;99.90;;;;;;7407671;19;19981;-77
2023/06/15 03:59:53;;;;;;;8.55;3.20;;;15.30;99.90;;;;;;7406309;19;19922;-77
2023/06/15 04:02:22;;;;;;;4.85;2.60;;;15.40;99.90;;;;;;7405543;19;20295;-76
2023/06/15 04:04:55;;;;;;;4.25;2.65;;;15.20;99.90;;;;;;7407909;19;20238;-77
2023/06/15 04:07:28;;;;;;;4.88;2.60;;;15.20;99.90;;;;;;7404679;19;19923;-77
2023/06/15 04:09:58;;;;;;;6.88;3.08;;;15.50;99.90;;;;;;7407739;19;19946;-77
2023/06/15 04:12:30;;;;;;;3.72;2.80;;;15.30;99.90;;;;;;7405893;19;19935;-77
2023/06/15 04:15:02;;;;;;;4.30;3.13;;;15.40;99.90;;;;;;7404111;19;20249;-76
2023/06/15 04:17:31;;;;;;;4.60;2.90;;;15.50;99.90;;;;;;7403247;19;19929;-76
2023/06/15 04:20:02;;;;;;;6.18;2.80;;;15.50;99.90;;;;;;7406096;19;20256;-76
2023/06/15 04:22:32;;;;;;;4.35;2.80;;;15.20;99.90;;;;;;7407429;19;19918;-76
2023/06/15 04:25:02;;;;;;;4.20;2.80;;;15.10;99.90;;;;;;7407322;19;19929;-77
2023/06/15 04:27:35;;;;;;;5.75;2.65;;;15.10;99.90;;;;;;7403632;19;19918;-77
2023/06/15 04:30:05;;;;;;;7.40;2.92;;;15.10;99.90;;;;;;7404807;19;20365;-76
2023/06/15 04:32:36;;;;;;;6.05;2.80;;;15.10;99.90;;;;;;7404275;19;19930;-76
2023/06/15 04:35:06;;;;;;;5.38;2.83;;;15.30;99.90;;;;;;7407267;19;19930;-77
2023/06/15 04:37:39;;;;;;;8.98;2.80;;;15.10;99.90;;;;;;7403283;19;19930;-77
2023/06/15 04:40:11;;;;;;;6.53;2.90;;;15.30;99.90;;;;;;7405780;19;19922;-77
2023/06/15 04:42:44;;;;;;;4.78;2.63;;;15.10;99.90;;;;;;7406466;19;19930;-77
2023/06/15 04:45:14;;;;;;;4.30;2.25;;;15.10;99.90;;;;;;7406193;19;19927;-76
2023/06/15 04:47:44;;;;;;;4.47;2.83;;;15.10;99.90;;;;;;7407388;19;19923;-77
2023/06/15 04:50:15;;;;;;;5.53;2.65;;;15.30;99.90;;;;;;7407464;19;19922;-77
2023/06/15 04:52:45;;;;;;;6.40;3.10;;;15.30;99.90;;;;;;7406292;19;19919;-76
2023/06/15 04:55:15;;;;;;;3.80;2.47;;;15.30;99.90;;;;;;7406380;19;20365;-76
2023/06/15 04:57:47;;;;;;;4.50;2.88;;;15.30;99.90;;;;;;7408667;19;20381;-77
2023/06/15 05:00:17;;;;;;;5.30;2.80;;;15.40;99.90;;;;;;7408249;19;19923;-76
2023/06/15 05:02:47;;;;;;;5.32;2.70;;;15.40;99.90;;;;;;7409908;19;19918;-76
2023/06/15 05:05:17;;;;;;;6.00;2.47;;;15.30;99.90;;;;;;7407353;19;20257;-77
2023/06/15 05:07:48;;;;;;;5.10;2.60;;;15.30;99.90;;;;;;7405517;19;20334;-76
2023/06/15 05:10:17;;;;;;;5.43;2.47;;;15.50;99.90;;;;;;7408354;19;19990;-76
2023/06/15 05:12:53;;;;;;;4.57;3.05;;;15.50;99.90;;;;;;7404921;19;19926;-77
2023/06/15 05:15:23;;;;;;;5.65;2.85;;;15.50;99.90;;;;;;7406717;19;20229;-77
2023/06/15 05:17:54;;;;;;;5.55;2.83;;;15.50;99.90;;;;;;7406459;19;19986;-77
2023/06/15 05:20:24;;;;;;;6.88;2.92;;;15.60;99.90;;;;;;7406381;19;19988;-76
2023/06/15 05:22:56;;;;;;;7.00;2.90;;;15.70;99.90;;;;;;7407531;19;19929;-76
2023/06/15 05:25:26;;;;;;;5.10;2.97;;;15.70;99.90;;;;;;7405779;19;19954;-76
2023/06/15 05:27:59;;;;;;;3.95;2.65;;;14.10;99.90;;;;;;7404025;19;19930;-77
2023/06/15 05:30:29;;;;;;;4.93;2.90;;;15.80;99.90;;;;;;7408135;19;19930;-77
2023/06/15 05:33:01;;;;;;;6.97;3.10;;;15.60;99.90;;;;;;7407900;19;19922;-77
2023/06/15 05:35:31;;;;;;;4.18;2.55;;;15.70;99.90;;;;;;7406358;19;19923;-77
2023/06/15 05:38:00;;;;;;;4.50;2.53;;;15.80;99.90;;;;;;7405474;19;19926;-77
2023/06/15 05:40:33;;;;;;;4.32;2.60;;;16.00;99.90;;;;;;7405336;19;20381;-77
2023/06/15 05:43:06;;;;;;;4.30;2.30;;;15.70;99.90;;;;;;7406370;19;19926;-77
2023/06/15 05:45:35;;;;;;;4.60;2.75;;;16.10;99.90;;;;;;7406906;19;19929;-76
2023/06/15 05:48:06;;;;;;;5.40;2.83;;;16.20;99.90;;;;;;7401012;19;19924;-77
2023/06/15 05:50:37;;;;;;;4.53;2.83;;;16.20;99.90;;;;;;7402671;19;19919;-76
2023/06/15 05:53:07;;;;;;;6.90;2.35;;;16.10;99.90;;;;;;7399498;19;19926;-76
2023/06/15 05:55:36;;;;;;;6.72;2.67;;;16.10;99.90;;;;;;7404669;19;19925;-77
2023/06/15 05:58:10;;;;;;;4.45;2.33;;;16.10;99.90;;;;;;7402377;19;19923;-77
2023/06/15 06:00:41;;;;;;;6.57;2.97;;;16.30;99.90;;;;;;7400480;19;19922;-76
2023/06/15 06:03:11;;;;;;;4.28;2.17;;;16.30;99.90;;;;;;7403766;19;19938;-77
2023/06/15 06:05:41;;;;;;;5.35;2.70;;;16.40;99.90;;;;;;7400133;19;19990;-77
2023/06/15 06:08:12;;;;;;;6.00;2.65;;;16.40;99.90;;;;;;7399601;19;19946;-76
2023/06/15 06:10:42;;;;;;;4.70;2.90;;;16.60;99.90;;;;;;7407895;19;19914;-77
2023/06/15 06:13:15;;;;;;;4.78;2.63;;;15.90;99.90;;;;;;7406911;19;19919;-77
2023/06/15 06:15:45;;;;;;;5.65;2.92;;;16.70;99.90;;;;;;7403990;19;19922;-76
2023/06/15 06:18:14;;;;;;;3.80;2.60;;;16.50;99.90;;;;;;7405190;19;19918;-76
2023/06/15 06:20:44;;;;;;;5.18;2.67;;;16.60;99.90;;;;;;7404743;19;19923;-76
2023/06/15 06:23:14;;;;;;;4.70;2.50;;;16.50;99.90;;;;;;7400874;19;19925;-77
2023/06/15 06:25:45;;;;;;;5.75;2.65;;;16.70;99.90;;;;;;7402627;19;20002;-77
2023/06/15 06:28:18;;;;;;;4.05;2.50;;;16.80;99.90;;;;;;7403542;19;19950;-76
2023/06/15 06:30:48;;;;;;;6.30;2.60;;;16.90;99.90;;;;;;7405992;19;19942;-77
2023/06/15 06:33:19;;;;;;;6.47;3.10;;;16.80;99.90;;;;;;7404468;19;19919;-77
2023/06/15 06:35:50;;;;;;;3.78;2.40;;;16.90;99.90;;;;;;7405070;19;19919;-77
2023/06/15 06:38:20;;;;;;;5.15;2.80;;;17.00;99.90;;;;;;7405492;19;19914;-77
2023/06/15 06:40:51;;;;;;;4.10;2.28;;;17.10;99.90;;;;;;7406640;19;19922;-77
2023/06/15 06:43:23;;;;;;;6.60;2.75;;;17.00;99.90;;;;;;7404412;19;20265;-76
2023/06/15 06:45:53;;;;;;;5.82;2.70;;;17.10;99.90;;;;;;7402977;19;19927;-76
2023/06/15 06:48:22;;;;;;;6.65;2.22;;;17.30;99.90;;;;;;7404198;19;19946;-77
2023/06/15 06:50:52;;;;;;;4.95;2.40;;;17.30;99.90;;;;;;7405350;19;19987;-77
2023/06/15 06:53:22;;;;;;;5.03;2.50;;;17.30;99.90;;;;;;7404025;19;19930;-76
2023/06/15 06:55:52;;;;;;;3.80;2.60;;;17.40;99.90;;;;;;7402674;19;20290;-77
2023/06/15 06:58:25;;;;;;;4.32;2.42;;;17.30;99.90;;;;;;7403359;19;20745;-75
2023/06/15 07:00:55;;;;;;;4.57;2.35;;;17.60;99.90;;;;;;7403408;19;20010;-77
2023/06/15 07:03:24;;;;;;;5.55;2.67;;;17.60;99.90;;;;;;7403129;19;20355;-77
2023/06/15 07:05:55;;;;;;;4.53;2.58;;;17.50;99.90;;;;;;7403572;19;20636;-77
2023/06/15 07:08:25;;;;;;;5.65;2.40;;;17.70;99.90;;;;;;7402414;19;19982;-77
2023/06/15 07:10:56;;;;;;;11.00;2.25;;;17.80;99.90;;;;;;7403983;19;19921;-76
2023/06/15 07:13:28;;;;;;;5.43;2.45;;;17.80;99.90;;;;;;7402194;19;19934;-77
2023/06/15 07:15:58;;;;;;;4.47;2.63;;;17.70;99.90;;;;;;7406335;19;19931;-77
2023/06/15 07:18:30;;;;;;;5.40;2.30;;;18.10;99.90;;;;;;7402889;19;19915;-77
2023/06/15 07:21:00;;;;;;;4.63;2.50;;;18.10;99.90;;;;;;7403423;19;19934;-77
2023/06/15 07:23:31;;;;;;;3.80;2.50;;;17.90;99.90;;;;;;7403248;19;19915;-77
2023/06/15 07:26:01;;;;;;;2.72;1.88;;;18.10;99.90;;;;;;7403026;19;19943;-77
2023/06/15 07:28:33;;;;;;;5.88;2.35;;;18.20;99.90;;;;;;7400858;19;19942;-77
2023/06/15 07:31:03;;;;;;;4.90;2.30;;;18.30;99.90;;;;;;7403624;19;19958;-77
2023/06/15 07:33:33;;;;;;;4.25;2.38;;;18.30;99.90;;;;;;7401709;19;19922;-77
2023/06/15 07:36:03;;;;;;;5.53;2.17;;;18.50;99.90;;;;;;7401966;19;19922;-76
2023/06/15 07:38:33;;;;;;;7.82;3.65;;;18.50;99.90;;;;;;7403711;19;20353;-77
2023/06/15 07:41:03;;;;;;;5.90;2.42;;;18.60;99.90;;;;;;7402900;19;19948;-76
2023/06/15 07:43:36;;;;;;;3.72;1.90;;;18.70;99.90;;;;;;7403415;19;19922;-76
2023/06/15 07:46:06;;;;;;;4.43;2.45;;;18.70;99.90;;;;;;7404124;19;20679;-76
2023/06/15 07:48:36;;;;;;;4.28;1.90;;;18.70;99.90;;;;;;7403123;19;19915;-77
2023/06/15 07:51:06;;;;;;;8.38;2.35;;;18.90;99.90;;;;;;7402008;19;19946;-77
2023/06/15 07:53:38;;;;;;;4.68;1.92;;;18.20;99.90;;;;;;7403443;19;19929;-77
2023/06/15 07:56:09;;;;;;;4.32;2.03;;;19.00;99.90;;;;;;7403671;19;20154;-77
2023/06/15 07:58:41;;;;;;;3.85;2.00;;;19.00;99.90;;;;;;7401455;19;19923;-77
2023/06/15 08:01:11;;;;;;;4.05;2.38;;;19.10;99.90;;;;;;7402777;19;19919;-77
2023/06/15 08:03:44;;;;;;;5.65;2.20;;;19.30;99.90;;;;;;7402744;19;19922;-76
2023/06/15 08:06:14;;;;;;;3.65;1.90;;;19.10;99.90;;;;;;7404281;19;19926;-76
2023/06/15 08:08:46;;;;;;;6.07;2.33;;;19.30;99.90;;;;;;7401469;19;19982;-77
2023/06/15 08:11:16;;;;;;;5.18;2.53;;;19.40;99.90;;;;;;7402556;19;20571;-74
2023/06/15 08:13:49;;;;;;;3.30;2.22;;;19.50;99.90;;;;;;7402509;19;19950;-75
2023/06/15 08:16:19;;;;;;;5.60;2.17;;;19.50;99.90;;;;;;7409980;19;20620;-75
2023/06/15 08:18:49;;;;;;;3.97;2.10;;;19.40;99.90;;;;;;7411832;19;19923;-74
2023/06/15 08:21:19;;;;;;;8.40;2.33;;;19.60;99.90;;;;;;7409621;19;20276;-74
2023/06/15 08:23:50;;;;;;;3.28;1.95;;;19.60;99.70;;;;;;7405590;19;19931;-74
2023/06/15 08:26:21;;;;;;;2.95;2.03;;;19.70;99.00;;;;;;7406992;19;19919;-75
2023/06/15 08:28:54;;;;;;;4.32;2.45;;;19.80;99.40;;;;;;7405256;19;19937;-75
2023/06/15 08:31:24;;;;;;;2.65;1.80;;;19.90;99.30;;;;;;7408830;19;19925;-75
2023/06/15 08:33:55;;;;;;;3.58;1.65;;;19.90;99.10;;;;;;7407671;19;19926;-75
2023/06/15 08:36:26;;;;;;;10.05;2.80;;;20.00;99.30;;;;;;7409848;19;19930;-76
2023/06/15 08:38:56;;;;;;;3.70;2.10;;;19.90;99.10;;;;;;7408204;19;19911;-77
2023/06/15 08:41:29;;;;;;;7.32;2.33;;;20.00;99.30;;;;;;7404205;19;19926;-77
2023/06/15 08:44:03;;;;;;;4.05;2.28;;;20.10;99.20;;;;;;7403966;19;19988;-77
2023/06/15 08:46:34;;;;;;;5.95;2.38;;;20.20;99.10;;;;;;7403256;19;20393;-77
2023/06/15 08:49:05;;;;;;;4.50;1.88;;;20.30;98.90;;;;;;7402578;19;19915;-78
2023/06/15 08:51:36;;;;;;;7.00;2.55;;;20.30;98.60;;;;;;7404613;19;19918;-77
2023/06/15 08:54:11;;;;;;;3.00;1.83;;;20.40;98.40;;;;;;7404952;19;19922;-77
2023/06/15 08:56:41;;;;;;;4.22;2.25;;;20.30;98.20;;;;;;7401900;19;19922;-77
2023/06/15 08:59:14;;;;;;;3.67;2.17;;;20.20;98.20;;;;;;7405006;19;19921;-77
2023/06/15 09:01:45;;;;;;;2.70;2.10;;;20.50;97.80;;;;;;7403355;19;20366;-77
2023/06/15 09:04:16;;;;;;;4.05;2.20;;;20.40;97.80;;;;;;7405235;19;19926;-78
2023/06/15 09:06:49;;;;;;;5.13;2.40;;;20.60;97.80;;;;;;7403421;19;19918;-77
2023/06/15 09:09:21;;;;;;;7.05;2.03;;;20.70;97.70;;;;;;7401558;19;19919;-77
2023/06/15 09:11:52;;;;;;;2.83;1.98;;;20.70;97.40;;;;;;7404949;19;19914;-77
2023/06/15 09:14:25;;;;;;;3.28;2.25;;;20.80;97.20;;;;;;7400768;19;20317;-77
2023/06/15 09:16:56;;;;;;;4.07;1.65;;;21.00;96.90;;;;;;7402764;19;19934;-77
2023/06/15 09:19:27;;;;;;;7.05;2.05;;;20.80;96.60;;;;;;7403089;19;19914;-77
2023/06/15 09:21:58;;;;;;;6.15;2.50;;;20.90;96.30;;;;;;7405456;19;19999;-77
2023/06/15 09:24:28;;;;;;;4.03;2.03;;;21.10;96.10;;;;;;7401466;19;19926;-76
2023/06/15 09:27:00;;;;;;;4.97;2.08;;;21.10;96.00;;;;;;7406970;19;19946;-77
2023/06/15 09:29:35;;;;;;;5.43;2.20;;;21.30;95.70;;;;;;7401063;19;19925;-78
2023/06/15 09:32:05;;;;;;;5.78;2.20;;;21.30;95.60;;;;;;7405404;19;19922;-78
2023/06/15 09:34:37;;;;;;;2.75;1.98;;;21.30;95.60;;;;;;7403302;19;19943;-78
2023/06/15 09:37:18;;;;;;;5.40;2.25;;;21.40;95.20;;;;;;7405207;19;19914;-77
2023/06/15 09:39:50;;;;;;;3.35;2.00;;;21.60;95.30;;;;;;7403324;19;19931;-77
2023/06/15 09:42:21;;;;;;;3.42;2.00;;;21.60;95.10;;;;;;7402784;19;19982;-78
2023/06/15 09:44:56;;;;;;;5.38;2.00;;;21.80;94.30;;;;;;7404533;19;19914;-77
2023/06/15 09:47:31;;;;;;;4.72;2.30;;;21.80;94.10;;;;;;7406094;19;19951;-77
2023/06/15 09:50:02;;;;;;;4.00;1.83;;;21.90;94.00;;;;;;7404603;19;19929;-77
2023/06/15 09:52:36;;;;;;;4.03;2.10;;;22.00;93.90;;;;;;7403053;19;19926;-77
2023/06/15 09:55:07;;;;;;;3.05;1.63;;;22.20;93.70;;;;;;7405102;19;20333;-77
2023/06/15 09:57:38;;;;;;;3.20;2.10;;;22.30;93.60;;;;;;7403022;19;19921;-78
2023/06/15 10:00:12;;;;;;;;;;;22.60;93.20;;;;;;7404999;19;19915;-76
2023/06/15 10:02:44;;;;;;;3.08;1.85;;;22.50;92.60;;;;;;7404956;19;19918;-77
2023/06/15 10:05:16;;;;;;;3.33;1.92;;;22.50;93.60;;;;;;7403805;19;19942;-77
2023/06/15 10:07:49;;;;;;;4.07;1.83;;;22.60;93.30;;;;;;7403839;19;19950;-77
2023/06/15 10:10:24;;;;;;;3.17;2.00;;;22.70;93.00;;;;;;7400825;19;19922;-77
2023/06/15 10:12:57;;;;;;;5.75;2.10;;;22.90;92.70;;;;;;7402900;19;19938;-77
2023/06/15 10:15:31;;;;;;;5.97;2.03;;;22.90;92.80;;;;;;7400105;19;20345;-77
2023/06/15 10:18:06;;;;;;;4.68;2.30;;;23.00;92.80;;;;;;7398669;19;19918;-77
2023/06/15 10:20:37;;;;;;;5.15;2.03;;;23.00;92.70;;;;;;7403730;19;19918;-77
2023/06/15 10:23:12;;;;;;;5.25;2.67;;;23.10;92.20;;;;;;7401416;19;19926;-77
2023/06/15 10:25:45;;;;;;;5.18;2.20;;;23.30;92.60;;;;;;7403132;19;19922;-77
2023/06/15 10:28:23;;;;;;;5.03;2.13;;;23.40;92.30;;;;;;7402177;19;19927;-77
2023/06/15 10:30:58;;;;;;;;;;;23.70;92.30;;;;;;7405806;19;19918;-77
2023/06/15 10:33:32;;;;;;;6.10;2.10;;;23.60;91.80;;;;;;7405352;19;20253;-77
2023/06/15 10:36:06;;;;;;;7.05;2.13;;;23.70;91.90;;;;;;7400947;19;19922;-77
2023/06/15 10:38:43;;;;;;;2.67;1.77;;;23.70;91.50;;;;;;7400877;19;19923;-77
2023/06/15 10:41:13;;;;;;;2.95;2.00;;;23.80;91.10;;;;;;7398804;19;19929;-77
2023/06/15 10:43:58;;;;;;;4.05;2.20;;;23.80;91.20;;;;;;7400721;19;19987;-77
2023/06/15 10:46:36;;;;;;;3.28;2.05;;;23.70;90.70;;;;;;7403590;19;19986;-77
2023/06/15 10:49:07;;;;;;;5.28;1.80;;;23.90;90.50;;;;;;7401298;19;20388;-77
2023/06/15 10:51:38;;;;;;;4.97;2.28;;;24.00;90.80;;;;;;7402316;19;19926;-77
2023/06/15 10:54:21;;;;;;;3.47;2.45;;;24.10;90.70;;;;;;7402713;19;19931;-77
2023/06/15 10:56:55;;;;;;;4.22;2.10;;;24.10;90.10;;;;;;7403737;19;19935;-77
2023/06/15 10:59:44;;;;;;;6.95;2.20;;;24.20;90.20;;;;;;7399300;19;19935;-78
2023/06/15 11:02:44;;;;;;;5.20;2.33;;;24.30;89.60;;;;;;7402837;19;19922;-77
2023/06/15 11:05:19;;;;;;;5.78;2.53;;;24.30;87.40;;;;;;7400740;19;20320;-77
2023/06/15 11:07:54;;;;;;;5.75;2.40;;;24.30;89.50;;;;;;7402305;19;20273;-77
2023/06/15 11:10:28;;;;;;;2.30;1.88;;;24.30;89.20;;;;;;7398547;19;19931;-77
2023/06/15 11:13:05;;;;;;;3.15;2.00;;;23.90;89.00;;;;;;7398195;19;19934;-77
2023/06/15 11:15:38;;;;;;;5.68;2.30;;;24.50;90.20;;;;;;7399058;19;20673;-77
2023/06/15 11:18:15;;;;;;;4.22;1.98;;;24.70;89.70;;;;;;7399465;19;19914;-77
2023/06/15 11:21:04;;;;;;;4.35;2.15;;;24.60;89.10;;;;;;7399610;19;20337;-77
2023/06/15 11:23:37;;;;;;;7.15;2.30;;;24.70;88.50;;;;;;7399669;19;19919;-81
2023/06/15 11:26:09;;;;;;;3.92;2.03;;;24.90;89.20;;;;;;7400662;19;19950;-79
2023/06/15 11:28:41;;;;;;;7.32;2.53;;;25.00;89.90;;;;;;7394671;19;19918;-77
2023/06/15 11:31:11;;;;;;;3.80;2.00;;;25.20;89.10;;;;;;7399983;19;19918;-77
2023/06/15 11:33:42;;;;;;;8.55;2.20;;;25.30;88.10;;;;;;7396341;19;19977;-77
2023/06/15 11:36:15;;;;;;;4.47;2.20;;;25.40;87.70;;;;;;7401518;19;19921;-77
2023/06/15 11:38:45;;;;;;;5.15;1.90;;;25.40;87.10;;;;;;7401471;19;19930;-77
2023/06/15 11:41:16;;;;;;;5.28;2.25;;;25.50;87.00;;;;;;7397993;19;19922;-77
2023/06/15 11:43:48;;;;;;;2.60;1.90;;;25.50;87.10;;;;;;7397882;19;20278;-77
2023/06/15 11:46:21;;;;;;;4.53;2.28;;;25.60;87.40;;;;;;7401474;19;19923;-77
2023/06/15 11:48:54;;;;;;;3.22;1.70;;;25.70;87.50;;;;;;7404094;19;19918;-77
2023/06/15 11:51:28;;;;;;;5.53;2.63;;;25.90;87.30;;;;;;7407243;19;19938;-77
2023/06/15 11:53:58;;;;;;;4.00;2.08;;;26.00;86.90;;;;;;7406178;19;20326;-77
2023/06/15 11:56:29;;;;;;;3.85;2.10;;;26.10;86.70;;;;;;7408697;19;19919;-77
2023/06/15 11:59:00;;;;;;;3.05;1.80;;;26.20;86.60;;;;;;7403967;19;20378;-77
2023/06/15 12:01:31;;;;;;;4.72;2.15;;;26.40;86.10;;;;;;7406043;19;19971;-77
2023/06/15 12:04:02;;;;;;;4.05;2.28;;;26.20;85.70;;;;;;7408585;19;20326;-77
2023/06/15 12:06:35;;;;;;;4.35;1.88;;;26.50;85.90;;;;;;7404888;19;19922;-78
2023/06/15 12:09:07;;;;;;;5.32;1.95;;;25.50;84.40;;;;;;7405024;19;19935;-77
2023/06/15 12:11:38;;;;;;;6.50;1.90;;;26.80;85.40;;;;;;7404919;19;19911;-77
2023/06/15 12:14:11;;;;;;;2.85;2.08;;;26.70;84.90;;;;;;7405293;19;19923;-76
2023/06/15 12:16:42;;;;;;;3.60;2.40;;;26.90;84.20;;;;;;7407246;19;19922;-77
2023/06/15 12:19:12;;;;;;;3.78;1.92;;;27.00;83.80;;;;;;7405069;19;19929;-77
2023/06/15 12:21:46;;;;;;;4.47;2.03;;;26.80;83.90;;;;;;7404817;19;19952;-77
2023/06/15 12:24:17;;;;;;;3.03;1.98;;;27.20;83.50;;;;;;7405027;19;19925;-77
2023/06/15 12:26:53;;;;;;;3.42;2.00;;;27.30;81.90;;;;;;7404074;19;19922;-77
2023/06/15 12:29:25;;;;;;;3.35;2.20;;;27.30;83.00;;;;;;7404233;19;19923;-77
2023/06/15 12:31:57;;;;;;;2.83;1.90;;;27.40;82.60;;;;;;7404551;19;19922;-78
2023/06/15 12:34:29;;;;;;;3.45;1.95;;;27.50;82.50;;;;;;7407673;19;20341;-77
2023/06/15 12:37:01;;;;;;;3.03;2.22;;;27.90;81.90;;;;;;7406812;19;20009;-77
2023/06/15 12:39:32;;;;;;;5.55;1.98;;;27.70;82.10;;;;;;7406386;19;19914;-77
2023/06/15 12:42:03;;;;;;;3.70;1.92;;;27.80;81.70;;;;;;7404798;19;20284;-77
2023/06/15 12:44:34;;;;;;;4.68;2.10;;;27.70;81.10;;;;;;7404784;19;20524;-77
2023/06/15 12:47:04;;;;;;;7.10;2.05;;;27.90;81.20;;;;;;7403215;19;19940;-77
2023/06/15 12:49:33;;;;;;;3.55;2.17;;;28.10;81.70;;;;;;7406765;19;19919;-77
2023/06/15 12:52:07;;;;;;;3.85;2.25;;;28.20;81.20;;;;;;7404338;19;19974;-77
2023/06/15 12:54:38;;;;;;;5.47;2.10;;;28.30;80.80;;;;;;7404030;19;19927;-77
2023/06/15 12:57:08;;;;;;;;;;;28.30;80.70;;;;;;7410350;19;20329;-77
2023/06/15 12:59:38;;;;;;;5.60;2.50;;;28.30;81.30;;;;;;7403571;19;19994;-77
2023/06/15 13:02:09;;;;;;;4.15;2.33;;;28.20;81.60;;;;;;7405627;19;20476;-77
2023/06/15 13:04:39;;;;;;;3.25;2.42;;;28.30;81.70;;;;;;7403857;19;19923;-77
2023/06/15 13:07:13;;;;;;;4.25;2.38;;;28.30;81.50;;;;;;7403730;19;20254;-77
2023/06/15 13:09:43;;;;;;;2.75;1.83;;;28.50;82.00;;;;;;7403436;19;19923;-78